URO3C LEPA-GCHI
Flight info
| Callsign | URO3C |
|---|---|
| Flight time | 1h 27m |
| Altitude | 41000 |
| Route | BAVER DCT ALT DCT ROLAS DCT MGA DCT VJF DCT RUNAX UL82 IBALU DCT BRICK DCT GOMER |
| Aircraft | A346/H-SDE2E3FGHIJ3J4J5M1RWXY/LB1D1 |
Departure
| Time | 2026-04-12 11:45 |
|---|---|
| Airport | Palma de Mallorca Airport (LEPA) |
Arrival
| Time | 2026-04-12 13:12 |
|---|---|
| Airport | El Hierro Airport (GCHI) |
| Time | Latitude | Longitude | Altitude | Speed | Heading |
|---|---|---|---|---|---|
| 2026-04-12 11:15 | 39.54955 | 2.73788 | 47 ft | 0 kts | 239° |
| 2026-04-12 11:30 | 39.54961 | 2.73801 | 44 ft | 4 kts | 239° |
| 2026-04-12 11:30 | 39.54975 | 2.73831 | 43 ft | 4 kts | 238° |
| 2026-04-12 11:30 | 39.54990 | 2.73853 | 43 ft | 4 kts | 213° |
| 2026-04-12 11:31 | 39.55009 | 2.73863 | 44 ft | 4 kts | 181° |
| 2026-04-12 11:31 | 39.55031 | 2.73857 | 43 ft | 3 kts | 151° |
| 2026-04-12 11:31 | 39.55049 | 2.73843 | 43 ft | 4 kts | 149° |
| 2026-04-12 11:31 | 39.55072 | 2.73825 | 44 ft | 4 kts | 149° |
| 2026-04-12 11:32 | 39.55073 | 2.73824 | 43 ft | 0 kts | 149° |
| 2026-04-12 11:39 | 39.55071 | 2.73826 | 44 ft | 3 kts | 149° |
| 2026-04-12 11:39 | 39.54998 | 2.73883 | 43 ft | 21 kts | 149° |
| 2026-04-12 11:39 | 39.54935 | 2.73967 | 47 ft | 9 kts | 80° |
| 2026-04-12 11:39 | 39.54925 | 2.74048 | 47 ft | 11 kts | 139° |
| 2026-04-12 11:40 | 39.54849 | 2.74106 | 47 ft | 15 kts | 154° |
| 2026-04-12 11:40 | 39.54762 | 2.74063 | 47 ft | 16 kts | 235° |
| 2026-04-12 11:40 | 39.54688 | 2.73909 | 47 ft | 25 kts | 238° |
| 2026-04-12 11:40 | 39.54597 | 2.73716 | 47 ft | 19 kts | 236° |
| 2026-04-12 11:41 | 39.54544 | 2.73684 | 47 ft | 0 kts | 147° |
| 2026-04-12 11:41 | 39.54541 | 2.73685 | 47 ft | 2 kts | 152° |
| 2026-04-12 11:41 | 39.54539 | 2.73687 | 47 ft | 0 kts | 152° |
| 2026-04-12 11:42 | 39.54532 | 2.73691 | 47 ft | 5 kts | 152° |
| 2026-04-12 11:43 | 39.54425 | 2.73785 | 47 ft | 0 kts | 69° |
| 2026-04-12 11:43 | 39.54427 | 2.73790 | 47 ft | 1 kts | 64° |
| 2026-04-12 11:43 | 39.54427 | 2.73791 | 47 ft | 0 kts | 59° |
| 2026-04-12 11:44 | 39.54433 | 2.73805 | 47 ft | 16 kts | 59° |
| 2026-04-12 11:44 | 39.54697 | 2.74366 | 47 ft | 127 kts | 59° |
| 2026-04-12 11:44 | 39.55274 | 2.75601 | 594 ft | 171 kts | 59° |
| 2026-04-12 11:45 | 39.55874 | 2.76897 | 2118 ft | 166 kts | 58° |
| 2026-04-12 11:45 | 39.56467 | 2.78276 | 3374 ft | 184 kts | 60° |
| 2026-04-12 11:45 | 39.57113 | 2.79839 | 4509 ft | 211 kts | 63° |
| 2026-04-12 11:45 | 39.57895 | 2.81663 | 5390 ft | 254 kts | 62° |
| 2026-04-12 11:46 | 39.58873 | 2.83891 | 5680 ft | 317 kts | 62° |
| 2026-04-12 11:46 | 39.59626 | 2.85530 | 6704 ft | 301 kts | 60° |
| 2026-04-12 11:46 | 39.60637 | 2.87562 | 10083 ft | 262 kts | 60° |
| 2026-04-12 11:46 | 39.61656 | 2.89575 | 11698 ft | 264 kts | 59° |
| 2026-04-12 11:47 | 39.62706 | 2.91488 | 13455 ft | 259 kts | 51° |
| 2026-04-12 11:47 | 39.64236 | 2.92755 | 14667 ft | 272 kts | 17° |
| 2026-04-12 11:47 | 39.66151 | 2.92587 | 15635 ft | 290 kts | 340° |
| 2026-04-12 11:47 | 39.67644 | 2.90791 | 16478 ft | 304 kts | 299° |
| 2026-04-12 11:48 | 39.68380 | 2.88209 | 17459 ft | 309 kts | 278° |
| 2026-04-12 11:48 | 39.68505 | 2.85417 | 18449 ft | 310 kts | 271° |
| 2026-04-12 11:48 | 39.68563 | 2.82623 | 19458 ft | 309 kts | 272° |
| 2026-04-12 11:48 | 39.68609 | 2.79780 | 20223 ft | 319 kts | 272° |
| 2026-04-12 11:49 | 39.68671 | 2.76856 | 20987 ft | 328 kts | 272° |
| 2026-04-12 11:49 | 39.68698 | 2.73826 | 21576 ft | 345 kts | 274° |
| 2026-04-12 11:49 | 39.68940 | 2.70647 | 22032 ft | 362 kts | 285° |
| 2026-04-12 11:49 | 39.69928 | 2.67602 | 22484 ft | 373 kts | 307° |
| 2026-04-12 11:50 | 39.71548 | 2.64839 | 22673 ft | 397 kts | 311° |
| 2026-04-12 11:50 | 39.73004 | 2.61649 | 22894 ft | 427 kts | 296° |
| 2026-04-12 11:50 | 39.74086 | 2.57955 | 23367 ft | 442 kts | 294° |
| 2026-04-12 11:50 | 39.75346 | 2.54304 | 24254 ft | 442 kts | 297° |
| 2026-04-12 11:51 | 39.76661 | 2.50666 | 25053 ft | 447 kts | 297° |
| 2026-04-12 11:51 | 39.77974 | 2.46957 | 25734 ft | 455 kts | 296° |
| 2026-04-12 11:51 | 39.79269 | 2.43176 | 26541 ft | 459 kts | 294° |
| 2026-04-12 11:51 | 39.80521 | 2.39328 | 27263 ft | 465 kts | 291° |
| 2026-04-12 11:52 | 39.81207 | 2.35177 | 27797 ft | 475 kts | 272° |
| 2026-04-12 11:52 | 39.80943 | 2.30943 | 28461 ft | 478 kts | 255° |
| 2026-04-12 11:52 | 39.79763 | 2.26917 | 29156 ft | 476 kts | 238° |
| 2026-04-12 11:52 | 39.77887 | 2.23390 | 29956 ft | 474 kts | 230° |
| 2026-04-12 11:53 | 39.75905 | 2.19942 | 30559 ft | 477 kts | 230° |
| 2026-04-12 11:53 | 39.73915 | 2.16485 | 31254 ft | 476 kts | 230° |
| 2026-04-12 11:53 | 39.71948 | 2.13044 | 32136 ft | 473 kts | 230° |
| 2026-04-12 11:53 | 39.69999 | 2.09612 | 33003 ft | 469 kts | 230° |
| 2026-04-12 11:54 | 39.68067 | 2.06210 | 33848 ft | 466 kts | 230° |
| 2026-04-12 11:54 | 39.66151 | 2.02831 | 34576 ft | 464 kts | 230° |
| 2026-04-12 11:54 | 39.64237 | 1.99457 | 35206 ft | 462 kts | 230° |
| 2026-04-12 11:54 | 39.62332 | 1.96105 | 35852 ft | 461 kts | 230° |
| 2026-04-12 11:55 | 39.60435 | 1.92754 | 36482 ft | 460 kts | 231° |
| 2026-04-12 11:55 | 39.58531 | 1.89414 | 37172 ft | 458 kts | 232° |
| 2026-04-12 11:55 | 39.56647 | 1.86111 | 37995 ft | 453 kts | 232° |
| 2026-04-12 11:55 | 39.54783 | 1.82844 | 38638 ft | 449 kts | 233° |
| 2026-04-12 11:56 | 39.52930 | 1.79593 | 39055 ft | 448 kts | 233° |
| 2026-04-12 11:56 | 39.51079 | 1.76338 | 39415 ft | 448 kts | 233° |
| 2026-04-12 11:56 | 39.49226 | 1.73083 | 39701 ft | 450 kts | 233° |
| 2026-04-12 11:56 | 39.47356 | 1.69801 | 39810 ft | 456 kts | 233° |
| 2026-04-12 11:57 | 39.45456 | 1.66475 | 39947 ft | 461 kts | 233° |
| 2026-04-12 11:57 | 39.43538 | 1.63120 | 40114 ft | 465 kts | 233° |
| 2026-04-12 11:57 | 39.41604 | 1.59743 | 40354 ft | 467 kts | 233° |
| 2026-04-12 11:57 | 39.39666 | 1.56365 | 40659 ft | 467 kts | 233° |
| 2026-04-12 11:58 | 39.37726 | 1.52985 | 40780 ft | 468 kts | 233° |
| 2026-04-12 11:58 | 39.33844 | 1.46234 | 40784 ft | 465 kts | 233° |
| 2026-04-12 11:59 | 39.29965 | 1.39505 | 40802 ft | 467 kts | 233° |
| 2026-04-12 11:59 | 39.26084 | 1.32779 | 40804 ft | 468 kts | 233° |
| 2026-04-12 12:00 | 39.22196 | 1.26059 | 40800 ft | 467 kts | 233° |
| 2026-04-12 12:00 | 39.18307 | 1.19351 | 40812 ft | 465 kts | 233° |
| 2026-04-12 12:01 | 39.14415 | 1.12656 | 40816 ft | 466 kts | 234° |
| 2026-04-12 12:01 | 39.10531 | 1.05987 | 40819 ft | 466 kts | 234° |
| 2026-04-12 12:02 | 39.04483 | 0.95610 | 40823 ft | 462 kts | 234° |
| 2026-04-12 12:02 | 38.92555 | 0.75268 | 40831 ft | 462 kts | 235° |
| 2026-04-12 12:03 | 38.89016 | 0.68367 | 40835 ft | 462 kts | 240° |
| 2026-04-12 12:03 | 38.86037 | 0.61069 | 40838 ft | 461 kts | 246° |
| 2026-04-12 12:04 | 38.83543 | 0.53488 | 40836 ft | 460 kts | 246° |
| 2026-04-12 12:04 | 38.80556 | 0.45903 | 40837 ft | 461 kts | 241° |
| 2026-04-12 12:05 | 38.77136 | 0.38983 | 40851 ft | 462 kts | 237° |
| 2026-04-12 12:05 | 38.73583 | 0.32105 | 40843 ft | 463 kts | 237° |
| 2026-04-12 12:06 | 38.70015 | 0.25219 | 40851 ft | 463 kts | 237° |
| 2026-04-12 12:06 | 38.66440 | 0.18336 | 40854 ft | 463 kts | 237° |
| 2026-04-12 12:07 | 38.62863 | 0.11462 | 40848 ft | 463 kts | 237° |
| 2026-04-12 12:07 | 38.59289 | 0.04606 | 40851 ft | 463 kts | 237° |
| 2026-04-12 12:08 | 38.55709 | -0.02244 | 40857 ft | 463 kts | 237° |
| 2026-04-12 12:08 | 38.52119 | -0.09103 | 40857 ft | 464 kts | 237° |
| 2026-04-12 12:09 | 38.48519 | -0.15962 | 40854 ft | 464 kts | 237° |
| 2026-04-12 12:09 | 38.44916 | -0.22814 | 40847 ft | 464 kts | 237° |
| 2026-04-12 12:10 | 38.41309 | -0.29659 | 40844 ft | 464 kts | 237° |
| 2026-04-12 12:10 | 38.37699 | -0.36495 | 40845 ft | 464 kts | 237° |
| 2026-04-12 12:11 | 38.34085 | -0.43325 | 40842 ft | 464 kts | 237° |
| 2026-04-12 12:11 | 38.30463 | -0.50154 | 40841 ft | 464 kts | 237° |
| 2026-04-12 12:12 | 38.27026 | -0.57119 | 40839 ft | 464 kts | 241° |
| 2026-04-12 12:12 | 38.24136 | -0.64462 | 40841 ft | 463 kts | 246° |
| 2026-04-12 12:13 | 38.21442 | -0.71921 | 40846 ft | 463 kts | 246° |
| 2026-04-12 12:13 | 38.18746 | -0.79376 | 40842 ft | 463 kts | 246° |
| 2026-04-12 12:14 | 38.16068 | -0.86764 | 40854 ft | 462 kts | 246° |
| 2026-04-12 12:14 | 38.13370 | -0.94191 | 40875 ft | 462 kts | 246° |
| 2026-04-12 12:15 | 38.10669 | -1.01611 | 40871 ft | 462 kts | 246° |
| 2026-04-12 12:15 | 38.07963 | -1.09022 | 40875 ft | 462 kts | 246° |
| 2026-04-12 12:16 | 38.05251 | -1.16431 | 40880 ft | 462 kts | 246° |
| 2026-04-12 12:16 | 38.02535 | -1.23833 | 40881 ft | 462 kts | 246° |
| 2026-04-12 12:17 | 37.99815 | -1.31231 | 40884 ft | 462 kts | 246° |
| 2026-04-12 12:17 | 37.97339 | -1.37948 | 40884 ft | 462 kts | 245° |
| 2026-04-12 12:18 | 37.94721 | -1.45034 | 40871 ft | 462 kts | 245° |
| 2026-04-12 12:18 | 37.91988 | -1.52411 | 40874 ft | 462 kts | 245° |
| 2026-04-12 12:19 | 37.89252 | -1.59778 | 40881 ft | 462 kts | 245° |
| 2026-04-12 12:19 | 37.86510 | -1.67144 | 40889 ft | 462 kts | 245° |
| 2026-04-12 12:20 | 37.84228 | -1.73257 | 40885 ft | 462 kts | 245° |
| 2026-04-12 12:20 | 37.81014 | -1.81852 | 40887 ft | 462 kts | 245° |
| 2026-04-12 12:21 | 37.78260 | -1.89196 | 40886 ft | 462 kts | 245° |
| 2026-04-12 12:21 | 37.75499 | -1.96540 | 40885 ft | 462 kts | 245° |
| 2026-04-12 12:22 | 37.72738 | -2.03867 | 40880 ft | 461 kts | 245° |
| 2026-04-12 12:22 | 37.69972 | -2.11193 | 40875 ft | 461 kts | 245° |
| 2026-04-12 12:23 | 37.67219 | -2.18463 | 40876 ft | 461 kts | 245° |
| 2026-04-12 12:23 | 37.64447 | -2.25767 | 40880 ft | 461 kts | 245° |
| 2026-04-12 12:24 | 37.61670 | -2.33067 | 40890 ft | 461 kts | 245° |
| 2026-04-12 12:24 | 37.58889 | -2.40359 | 40888 ft | 461 kts | 245° |
| 2026-04-12 12:25 | 37.56103 | -2.47647 | 40880 ft | 461 kts | 245° |
| 2026-04-12 12:25 | 37.53314 | -2.54927 | 40888 ft | 461 kts | 245° |
| 2026-04-12 12:26 | 37.50518 | -2.62208 | 40889 ft | 461 kts | 245° |
| 2026-04-12 12:26 | 37.47720 | -2.69478 | 40893 ft | 460 kts | 245° |
| 2026-04-12 12:27 | 37.44922 | -2.76731 | 40892 ft | 460 kts | 245° |
| 2026-04-12 12:27 | 37.42123 | -2.83967 | 40886 ft | 459 kts | 245° |
| 2026-04-12 12:28 | 37.39323 | -2.91193 | 40893 ft | 459 kts | 245° |
| 2026-04-12 12:28 | 37.36517 | -2.98413 | 40890 ft | 459 kts | 245° |
| 2026-04-12 12:29 | 37.33711 | -3.05622 | 40894 ft | 459 kts | 245° |
| 2026-04-12 12:29 | 37.30898 | -3.12829 | 40891 ft | 458 kts | 245° |
| 2026-04-12 12:30 | 37.28084 | -3.20024 | 40892 ft | 458 kts | 245° |
| 2026-04-12 12:30 | 37.25265 | -3.27211 | 40897 ft | 458 kts | 244° |
| 2026-04-12 12:31 | 37.22459 | -3.34351 | 40898 ft | 458 kts | 244° |
| 2026-04-12 12:31 | 37.18018 | -3.45615 | 40883 ft | 458 kts | 244° |
| 2026-04-12 12:32 | 37.12342 | -3.59952 | 40901 ft | 458 kts | 244° |
| 2026-04-12 12:32 | 37.08536 | -3.69529 | 40905 ft | 458 kts | 244° |
| 2026-04-12 12:33 | 37.00941 | -3.88552 | 40911 ft | 458 kts | 244° |
| 2026-04-12 12:33 | 36.95223 | -4.02804 | 40897 ft | 458 kts | 244° |
| 2026-04-12 12:34 | 36.89486 | -4.17037 | 40889 ft | 457 kts | 244° |
| 2026-04-12 12:34 | 36.83736 | -4.31238 | 40891 ft | 457 kts | 244° |
| 2026-04-12 12:35 | 36.78803 | -4.45917 | 40900 ft | 457 kts | 251° |
| 2026-04-12 12:35 | 30.51319 | -12.36717 | 40805 ft | 470 kts | 216° |
| 2026-04-12 12:35 | 30.46168 | -12.41045 | 41064 ft | 440 kts | 221° |
| 2026-04-12 12:36 | 30.42991 | -12.43787 | 41100 ft | 420 kts | 222° |
| 2026-04-12 12:36 | 30.33693 | -12.51814 | 41130 ft | 415 kts | 222° |
| 2026-04-12 12:37 | 30.24420 | -12.59757 | 41132 ft | 414 kts | 221° |
| 2026-04-12 12:37 | 30.15370 | -12.67956 | 41138 ft | 408 kts | 231° |
| 2026-04-12 12:37 | 30.11933 | -12.73227 | 41129 ft | 401 kts | 244° |
| 2026-04-12 12:38 | 30.09729 | -12.79119 | 41129 ft | 396 kts | 256° |
| 2026-04-12 12:38 | 30.07871 | -12.91615 | 41144 ft | 394 kts | 263° |
| 2026-04-12 12:39 | 30.06273 | -13.04177 | 41146 ft | 394 kts | 263° |
| 2026-04-12 12:39 | 30.04659 | -13.16718 | 41151 ft | 394 kts | 263° |
| 2026-04-12 12:40 | 30.03031 | -13.29264 | 41153 ft | 394 kts | 263° |
| 2026-04-12 12:40 | 30.01167 | -13.43508 | 41161 ft | 411 kts | 263° |
| 2026-04-12 12:40 | 29.98365 | -13.64673 | 41167 ft | 434 kts | 262° |
| 2026-04-12 12:41 | 29.92439 | -14.08602 | 41179 ft | 434 kts | 262° |
| 2026-04-12 12:41 | 29.86417 | -14.52142 | 41193 ft | 434 kts | 262° |
| 2026-04-12 12:42 | 29.80154 | -14.96311 | 41196 ft | 434 kts | 262° |
| 2026-04-12 12:42 | 29.70488 | -15.62431 | 41217 ft | 434 kts | 261° |
| 2026-04-12 12:43 | 29.64676 | -16.01092 | 41220 ft | 435 kts | 261° |
| 2026-04-12 12:43 | 29.63634 | -16.07955 | 41235 ft | 435 kts | 261° |
| 2026-04-12 12:44 | 29.62588 | -16.14816 | 41228 ft | 435 kts | 261° |
| 2026-04-12 12:44 | 29.62066 | -16.18226 | 41100 ft | 430 kts | 261° |
| 2026-04-12 12:44 | 29.61547 | -16.21608 | 40487 ft | 430 kts | 261° |
| 2026-04-12 12:45 | 29.61000 | -16.24996 | 39781 ft | 431 kts | 258° |
| 2026-04-12 12:45 | 29.60152 | -16.28293 | 39145 ft | 429 kts | 251° |
| 2026-04-12 12:45 | 29.58965 | -16.31435 | 38363 ft | 428 kts | 245° |
| 2026-04-12 12:45 | 29.57456 | -16.34404 | 37424 ft | 432 kts | 239° |
| 2026-04-12 12:46 | 29.55632 | -16.37169 | 36394 ft | 437 kts | 232° |
| 2026-04-12 12:46 | 29.53526 | -16.39663 | 35381 ft | 444 kts | 226° |
| 2026-04-12 12:46 | 29.51067 | -16.41929 | 34354 ft | 451 kts | 219° |
| 2026-04-12 12:46 | 29.48411 | -16.43808 | 33194 ft | 456 kts | 213° |
| 2026-04-12 12:47 | 29.45625 | -16.45552 | 31664 ft | 456 kts | 213° |
| 2026-04-12 12:47 | 29.42841 | -16.47253 | 30595 ft | 449 kts | 213° |
| 2026-04-12 12:47 | 29.40115 | -16.48907 | 29594 ft | 437 kts | 213° |
| 2026-04-12 12:47 | 29.37428 | -16.50542 | 29140 ft | 436 kts | 213° |
| 2026-04-12 12:48 | 29.34730 | -16.52190 | 28763 ft | 436 kts | 213° |
| 2026-04-12 12:48 | 29.32051 | -16.53827 | 28445 ft | 436 kts | 213° |
| 2026-04-12 12:48 | 29.29375 | -16.55460 | 28105 ft | 435 kts | 213° |
| 2026-04-12 12:48 | 29.26713 | -16.57082 | 27702 ft | 432 kts | 213° |
| 2026-04-12 12:49 | 29.24067 | -16.58695 | 27319 ft | 430 kts | 213° |
| 2026-04-12 12:49 | 29.21432 | -16.60301 | 26953 ft | 428 kts | 213° |
| 2026-04-12 12:49 | 29.18806 | -16.61900 | 26591 ft | 426 kts | 213° |
| 2026-04-12 12:49 | 29.16188 | -16.63493 | 26231 ft | 425 kts | 213° |
| 2026-04-12 12:50 | 29.13585 | -16.65077 | 25859 ft | 423 kts | 213° |
| 2026-04-12 12:50 | 29.10987 | -16.66656 | 25502 ft | 422 kts | 213° |
| 2026-04-12 12:50 | 29.08401 | -16.68228 | 25135 ft | 420 kts | 213° |
| 2026-04-12 12:50 | 29.05824 | -16.69793 | 24760 ft | 418 kts | 213° |
| 2026-04-12 12:51 | 29.03266 | -16.71348 | 24305 ft | 415 kts | 213° |
| 2026-04-12 12:51 | 29.00725 | -16.72890 | 23872 ft | 412 kts | 213° |
| 2026-04-12 12:51 | 28.98204 | -16.74417 | 23360 ft | 408 kts | 213° |
| 2026-04-12 12:51 | 28.95706 | -16.75931 | 22887 ft | 404 kts | 213° |
| 2026-04-12 12:52 | 28.93235 | -16.77427 | 22442 ft | 400 kts | 213° |
| 2026-04-12 12:52 | 28.90787 | -16.78908 | 21998 ft | 396 kts | 213° |
| 2026-04-12 12:52 | 28.88361 | -16.80376 | 21546 ft | 393 kts | 213° |
| 2026-04-12 12:52 | 28.85952 | -16.81833 | 21116 ft | 390 kts | 212° |
| 2026-04-12 12:53 | 28.83558 | -16.83281 | 20683 ft | 388 kts | 212° |
| 2026-04-12 12:53 | 28.81179 | -16.84719 | 20236 ft | 386 kts | 212° |
| 2026-04-12 12:53 | 28.78811 | -16.86148 | 19809 ft | 384 kts | 212° |
| 2026-04-12 12:53 | 28.76450 | -16.87574 | 19365 ft | 383 kts | 212° |
| 2026-04-12 12:54 | 28.74100 | -16.88993 | 18917 ft | 382 kts | 212° |
| 2026-04-12 12:54 | 28.71755 | -16.90407 | 18458 ft | 381 kts | 212° |
| 2026-04-12 12:54 | 28.69410 | -16.91820 | 17959 ft | 380 kts | 212° |
| 2026-04-12 12:54 | 28.67077 | -16.93224 | 17477 ft | 378 kts | 212° |
| 2026-04-12 12:55 | 28.64755 | -16.94621 | 17025 ft | 377 kts | 212° |
| 2026-04-12 12:55 | 28.62442 | -16.96013 | 16565 ft | 375 kts | 212° |
| 2026-04-12 12:55 | 28.60137 | -16.97399 | 16099 ft | 374 kts | 212° |
| 2026-04-12 12:55 | 28.57843 | -16.98777 | 15640 ft | 372 kts | 212° |
| 2026-04-12 12:56 | 28.55583 | -17.00135 | 15194 ft | 371 kts | 211° |
| 2026-04-12 12:56 | 28.53303 | -17.01504 | 14717 ft | 370 kts | 211° |
| 2026-04-12 12:56 | 28.51028 | -17.02869 | 14256 ft | 369 kts | 211° |
| 2026-04-12 12:56 | 28.48756 | -17.04232 | 13745 ft | 368 kts | 211° |
| 2026-04-12 12:57 | 28.46497 | -17.05588 | 13252 ft | 366 kts | 211° |
| 2026-04-12 12:57 | 28.44257 | -17.06930 | 12778 ft | 363 kts | 211° |
| 2026-04-12 12:57 | 28.42024 | -17.08263 | 12322 ft | 361 kts | 211° |
| 2026-04-12 12:57 | 28.39804 | -17.09592 | 11811 ft | 360 kts | 211° |
| 2026-04-12 12:58 | 28.37584 | -17.10925 | 11243 ft | 361 kts | 211° |
| 2026-04-12 12:58 | 28.35379 | -17.12252 | 10961 ft | 356 kts | 211° |
| 2026-04-12 12:58 | 28.33209 | -17.13544 | 10687 ft | 349 kts | 211° |
| 2026-04-12 12:58 | 28.30931 | -17.14919 | 10547 ft | 390 kts | 210° |
| 2026-04-12 12:59 | 28.28502 | -17.16374 | 10325 ft | 398 kts | 209° |
| 2026-04-12 12:59 | 28.26043 | -17.17838 | 10275 ft | 399 kts | 210° |
| 2026-04-12 12:59 | 28.23571 | -17.19304 | 10276 ft | 402 kts | 209° |
| 2026-04-12 12:59 | 28.21099 | -17.20778 | 10278 ft | 400 kts | 209° |
| 2026-04-12 13:00 | 28.18632 | -17.22243 | 10268 ft | 400 kts | 209° |
| 2026-04-12 13:00 | 28.16162 | -17.23711 | 10272 ft | 402 kts | 209° |
| 2026-04-12 13:00 | 28.13689 | -17.25186 | 10277 ft | 400 kts | 209° |
| 2026-04-12 13:00 | 28.06207 | -17.29628 | 10201 ft | 395 kts | 209° |
| 2026-04-12 13:01 | 28.03771 | -17.31074 | 10213 ft | 396 kts | 209° |
| 2026-04-12 13:01 | 28.01340 | -17.32531 | 9968 ft | 394 kts | 211° |
| 2026-04-12 13:01 | 27.99214 | -17.34427 | 9622 ft | 387 kts | 230° |
| 2026-04-12 13:01 | 27.97555 | -17.36821 | 9354 ft | 385 kts | 235° |
| 2026-04-12 13:02 | 27.95964 | -17.39251 | 9048 ft | 384 kts | 236° |
| 2026-04-12 13:02 | 27.94376 | -17.41680 | 8715 ft | 383 kts | 235° |
| 2026-04-12 13:02 | 27.92777 | -17.44106 | 8372 ft | 384 kts | 236° |
| 2026-04-12 13:02 | 27.91170 | -17.46531 | 8041 ft | 385 kts | 235° |
| 2026-04-12 13:03 | 27.89570 | -17.48941 | 7717 ft | 381 kts | 234° |
| 2026-04-12 13:03 | 27.87975 | -17.51334 | 7383 ft | 380 kts | 234° |
| 2026-04-12 13:03 | 27.86369 | -17.53734 | 7037 ft | 378 kts | 234° |
| 2026-04-12 13:03 | 27.84807 | -17.56075 | 6716 ft | 368 kts | 234° |
| 2026-04-12 13:04 | 27.83271 | -17.58365 | 6349 ft | 365 kts | 234° |
| 2026-04-12 13:04 | 27.81760 | -17.60615 | 5984 ft | 363 kts | 234° |
| 2026-04-12 13:04 | 27.80232 | -17.62895 | 5651 ft | 362 kts | 234° |
| 2026-04-12 13:04 | 27.78702 | -17.65180 | 5285 ft | 357 kts | 234° |
| 2026-04-12 13:05 | 27.77198 | -17.67418 | 4933 ft | 357 kts | 234° |
| 2026-04-12 13:05 | 27.75717 | -17.69626 | 4570 ft | 356 kts | 234° |
| 2026-04-12 13:05 | 27.74206 | -17.71878 | 4188 ft | 352 kts | 233° |
| 2026-04-12 13:05 | 27.72778 | -17.73996 | 3719 ft | 333 kts | 233° |
| 2026-04-12 13:06 | 27.71426 | -17.76003 | 3358 ft | 310 kts | 234° |
| 2026-04-12 13:06 | 27.70434 | -17.78060 | 2984 ft | 288 kts | 256° |
| 2026-04-12 13:06 | 27.69422 | -17.79848 | 2774 ft | 268 kts | 213° |
| 2026-04-12 13:06 | 27.67897 | -17.80891 | 2649 ft | 243 kts | 213° |
| 2026-04-12 13:07 | 27.66646 | -17.81986 | 2610 ft | 212 kts | 223° |
| 2026-04-12 13:07 | 27.65526 | -17.82780 | 2704 ft | 176 kts | 168° |
| 2026-04-12 13:07 | 27.65062 | -17.81950 | 2553 ft | 140 kts | 42° |
| 2026-04-12 13:07 | 27.65987 | -17.81869 | 2431 ft | 148 kts | 344° |
| 2026-04-12 13:08 | 27.66927 | -17.82258 | 2295 ft | 142 kts | 352° |
| 2026-04-12 13:08 | 27.67886 | -17.82521 | 2286 ft | 142 kts | 354° |
| 2026-04-12 13:08 | 27.68843 | -17.82769 | 2286 ft | 141 kts | 354° |
| 2026-04-12 13:08 | 27.69797 | -17.83003 | 2272 ft | 140 kts | 355° |
| 2026-04-12 13:09 | 27.70752 | -17.83265 | 2233 ft | 143 kts | 351° |
| 2026-04-12 13:09 | 27.71711 | -17.83579 | 2165 ft | 144 kts | 348° |
| 2026-04-12 13:09 | 27.72659 | -17.83965 | 2029 ft | 145 kts | 345° |
| 2026-04-12 13:09 | 27.73576 | -17.84424 | 1917 ft | 141 kts | 341° |
| 2026-04-12 13:10 | 27.74405 | -17.84930 | 1728 ft | 131 kts | 339° |
| 2026-04-12 13:10 | 27.75192 | -17.85420 | 1383 ft | 130 kts | 341° |
| 2026-04-12 13:10 | 27.76017 | -17.85832 | 971 ft | 129 kts | 345° |
| 2026-04-12 13:10 | 27.76819 | -17.86234 | 690 ft | 121 kts | 342° |
| 2026-04-12 13:11 | 27.77598 | -17.86574 | 643 ft | 126 kts | 345° |
| 2026-04-12 13:11 | 27.78437 | -17.86950 | 682 ft | 132 kts | 341° |
| 2026-04-12 13:11 | 27.79244 | -17.87448 | 512 ft | 129 kts | 339° |
| 2026-04-12 13:11 | 27.80011 | -17.87883 | 314 ft | 117 kts | 343° |
| 2026-04-12 13:12 | 27.80746 | -17.88294 | 195 ft | 115 kts | 345° |
| 2026-04-12 13:12 | 27.81255 | -17.88576 | 113 ft | 14 kts | 336° |
| 2026-04-12 13:12 | 27.81351 | -17.88580 | 113 ft | 13 kts | 37° |
| 2026-04-12 13:12 | 27.81433 | -17.88587 | 114 ft | 10 kts | 332° |
| 2026-04-12 13:13 | 27.81436 | -17.88589 | 114 ft | 0 kts | 332° |